sensor_id;sensor_type;location;lat;lon;timestamp;pressure;altitude;pressure_sealevel;temperature;humidity
48402;BME280;34201;52.438;16.744;2022-07-29T00:00:52;100911.25;;;13.75;81.04
48402;BME280;34201;52.438;16.744;2022-07-29T00:03:18;100927.03;;;13.68;81.62
48402;BME280;34201;52.438;16.744;2022-07-29T00:05:43;100929.75;;;13.65;81.86
48402;BME280;34201;52.438;16.744;2022-07-29T00:08:09;100927.88;;;13.69;81.82
48402;BME280;34201;52.438;16.744;2022-07-29T00:10:34;100919.19;;;13.70;81.83
48402;BME280;34201;52.438;16.744;2022-07-29T00:13:00;100921.78;;;13.70;82.05
48402;BME280;34201;52.438;16.744;2022-07-29T00:15:25;100917.53;;;13.67;82.18
48402;BME280;34201;52.438;16.744;2022-07-29T00:17:51;100926.94;;;13.72;81.98
48402;BME280;34201;52.438;16.744;2022-07-29T00:20:16;100911.41;;;13.70;81.83
48402;BME280;34201;52.438;16.744;2022-07-29T00:22:42;100910.41;;;13.74;81.61
48402;BME280;34201;52.438;16.744;2022-07-29T00:25:08;100919.06;;;13.75;82.02
48402;BME280;34201;52.438;16.744;2022-07-29T00:27:35;100910.31;;;13.77;81.75
48402;BME280;34201;52.438;16.744;2022-07-29T00:30:00;100918.09;;;13.77;81.81
48402;BME280;34201;52.438;16.744;2022-07-29T00:32:25;100912.97;;;13.76;82.02
48402;BME280;34201;52.438;16.744;2022-07-29T00:34:51;100919.88;;;13.77;82.33
48402;BME280;34201;52.438;16.744;2022-07-29T00:37:35;100908.50;;;13.79;81.94
48402;BME280;34201;52.438;16.744;2022-07-29T00:40:00;100902.47;;;13.79;82.07
48402;BME280;34201;52.438;16.744;2022-07-29T00:42:26;100908.59;;;13.76;82.18
48402;BME280;34201;52.438;16.744;2022-07-29T00:44:51;100917.28;;;13.77;83.05
48402;BME280;34201;52.438;16.744;2022-07-29T00:47:16;100923.81;;;13.89;83.12
48402;BME280;34201;52.438;16.744;2022-07-29T00:49:42;100927.75;;;14.02;83.10
48402;BME280;34201;52.438;16.744;2022-07-29T00:52:09;100912.06;;;14.05;82.61
48402;BME280;34201;52.438;16.744;2022-07-29T00:54:35;100916.84;;;14.17;82.25
48402;BME280;34201;52.438;16.744;2022-07-29T00:57:01;100905.50;;;14.20;82.25
48402;BME280;34201;52.438;16.744;2022-07-29T00:59:27;100902.19;;;14.15;82.35
48402;BME280;34201;52.438;16.744;2022-07-29T01:01:53;100920.47;;;14.13;82.78
48402;BME280;34201;52.438;16.744;2022-07-29T01:04:20;100929.00;;;14.17;83.17
48402;BME280;34201;52.438;16.744;2022-07-29T01:06:47;100934.31;;;14.14;83.28
48402;BME280;34201;52.438;16.744;2022-07-29T01:09:12;100936.13;;;14.12;83.67
48402;BME280;34201;52.438;16.744;2022-07-29T01:11:39;100942.88;;;14.17;84.09
48402;BME280;34201;52.438;16.744;2022-07-29T01:14:06;100939.41;;;14.17;84.60
48402;BME280;34201;52.438;16.744;2022-07-29T01:16:39;100942.75;;;14.20;84.80
48402;BME280;34201;52.438;16.744;2022-07-29T01:21:59;100942.50;;;14.28;85.55
48402;BME280;34201;52.438;16.744;2022-07-29T01:26:57;100952.28;;;14.22;86.86
48402;BME280;34201;52.438;16.744;2022-07-29T01:29:36;100955.72;;;14.22;87.20
48402;BME280;34201;52.438;16.744;2022-07-29T01:32:08;100963.72;;;14.16;87.71
48402;BME280;34201;52.438;16.744;2022-07-29T01:37:28;100967.94;;;14.18;88.71
48402;BME280;34201;52.438;16.744;2022-07-29T01:39:56;100951.84;;;14.07;89.16
48402;BME280;34201;52.438;16.744;2022-07-29T01:42:32;100960.41;;;14.11;90.04
48402;BME280;34201;52.438;16.744;2022-07-29T01:45:08;100959.03;;;13.99;90.30
48402;BME280;34201;52.438;16.744;2022-07-29T01:47:43;100964.09;;;14.03;90.93
48402;BME280;34201;52.438;16.744;2022-07-29T01:50:12;100959.63;;;14.07;91.37
48402;BME280;34201;52.438;16.744;2022-07-29T01:52:45;100957.56;;;13.90;91.83
48402;BME280;34201;52.438;16.744;2022-07-29T01:55:16;100960.94;;;13.94;92.56
48402;BME280;34201;52.438;16.744;2022-07-29T01:57:45;100975.63;;;13.95;92.44
48402;BME280;34201;52.438;16.744;2022-07-29T02:00:12;100970.56;;;13.90;92.89
48402;BME280;34201;52.438;16.744;2022-07-29T02:02:39;100974.97;;;13.88;93.28
48402;BME280;34201;52.438;16.744;2022-07-29T02:05:07;100973.31;;;13.85;93.91
48402;BME280;34201;52.438;16.744;2022-07-29T02:07:36;100969.81;;;13.86;93.94
48402;BME280;34201;52.438;16.744;2022-07-29T02:10:03;100967.44;;;13.79;94.62
48402;BME280;34201;52.438;16.744;2022-07-29T02:12:32;100976.81;;;13.84;95.40
48402;BME280;34201;52.438;16.744;2022-07-29T02:14:59;100988.72;;;13.92;95.88
48402;BME280;34201;52.438;16.744;2022-07-29T02:17:55;100978.25;;;13.93;96.38
48402;BME280;34201;52.438;16.744;2022-07-29T02:20:22;100977.53;;;13.90;96.70
48402;BME280;34201;52.438;16.744;2022-07-29T02:22:50;100986.25;;;13.87;97.26
48402;BME280;34201;52.438;16.744;2022-07-29T02:25:17;100983.50;;;13.92;97.46
48402;BME280;34201;52.438;16.744;2022-07-29T02:27:44;100994.06;;;13.87;97.78
48402;BME280;34201;52.438;16.744;2022-07-29T02:30:11;100986.63;;;13.75;98.37
48402;BME280;34201;52.438;16.744;2022-07-29T02:32:40;101000.28;;;13.81;99.47
48402;BME280;34201;52.438;16.744;2022-07-29T02:35:07;101001.44;;;13.73;100.00
48402;BME280;34201;52.438;16.744;2022-07-29T02:37:33;101017.03;;;13.73;100.00
48402;BME280;34201;52.438;16.744;2022-07-29T02:40:01;101024.03;;;13.69;100.00
48402;BME280;34201;52.438;16.744;2022-07-29T02:42:28;101028.31;;;13.72;100.00
48402;BME280;34201;52.438;16.744;2022-07-29T02:44:54;101024.78;;;13.74;100.00
48402;BME280;34201;52.438;16.744;2022-07-29T02:47:31;101022.16;;;13.74;100.00
48402;BME280;34201;52.438;16.744;2022-07-29T02:50:32;101022.13;;;13.76;100.00
48402;BME280;34201;52.438;16.744;2022-07-29T02:53:03;101025.50;;;13.78;100.00
48402;BME280;34201;52.438;16.744;2022-07-29T02:55:33;101022.25;;;13.71;100.00
48402;BME280;34201;52.438;16.744;2022-07-29T02:58:02;101020.50;;;13.72;100.00
48402;BME280;34201;52.438;16.744;2022-07-29T03:00:30;101032.63;;;13.73;100.00
48402;BME280;34201;52.438;16.744;2022-07-29T03:02:58;101026.72;;;13.66;100.00
48402;BME280;34201;52.438;16.744;2022-07-29T03:05:25;101031.19;;;13.61;100.00
48402;BME280;34201;52.438;16.744;2022-07-29T03:07:55;101036.34;;;13.62;100.00
48402;BME280;34201;52.438;16.744;2022-07-29T03:10:23;101019.13;;;13.58;100.00
48402;BME280;34201;52.438;16.744;2022-07-29T03:12:50;101032.03;;;13.63;100.00
48402;BME280;34201;52.438;16.744;2022-07-29T03:15:16;101032.03;;;13.63;100.00
48402;BME280;34201;52.438;16.744;2022-07-29T03:17:41;101033.84;;;13.59;100.00
48402;BME280;34201;52.438;16.744;2022-07-29T03:20:08;101034.06;;;13.51;100.00
48402;BME280;34201;52.438;16.744;2022-07-29T03:22:39;101029.63;;;13.55;100.00
48402;BME280;34201;52.438;16.744;2022-07-29T03:25:09;101022.06;;;13.47;100.00
48402;BME280;34201;52.438;16.744;2022-07-29T03:27:35;101041.09;;;13.48;100.00
48402;BME280;34201;52.438;16.744;2022-07-29T03:30:00;101053.84;;;13.57;100.00
48402;BME280;34201;52.438;16.744;2022-07-29T03:32:26;101033.13;;;13.54;100.00
48402;BME280;34201;52.438;16.744;2022-07-29T03:34:51;101036.50;;;13.58;100.00
48402;BME280;34201;52.438;16.744;2022-07-29T03:37:16;101032.31;;;13.52;100.00
48402;BME280;34201;52.438;16.744;2022-07-29T03:39:43;101033.13;;;13.54;100.00
48402;BME280;34201;52.438;16.744;2022-07-29T03:42:11;101035.72;;;13.54;100.00
48402;BME280;34201;52.438;16.744;2022-07-29T03:44:41;101052.00;;;13.61;100.00
48402;BME280;34201;52.438;16.744;2022-07-29T03:47:09;101046.03;;;13.57;100.00
48402;BME280;34201;52.438;16.744;2022-07-29T03:49:36;101054.78;;;13.55;100.00
48402;BME280;34201;52.438;16.744;2022-07-29T03:52:03;101077.88;;;13.64;100.00
48402;BME280;34201;52.438;16.744;2022-07-29T03:54:29;101063.22;;;13.63;100.00
48402;BME280;34201;52.438;16.744;2022-07-29T03:56:57;101069.09;;;13.68;100.00
48402;BME280;34201;52.438;16.744;2022-07-29T03:59:24;101075.19;;;13.68;100.00
48402;BME280;34201;52.438;16.744;2022-07-29T04:01:51;101061.34;;;13.66;100.00
48402;BME280;34201;52.438;16.744;2022-07-29T04:04:17;101062.19;;;13.68;100.00
48402;BME280;34201;52.438;16.744;2022-07-29T04:06:45;101061.31;;;13.68;100.00
48402;BME280;34201;52.438;16.744;2022-07-29T04:09:11;101054.88;;;13.81;100.00
48402;BME280;34201;52.438;16.744;2022-07-29T04:11:41;101045.56;;;13.74;100.00
48402;BME280;34201;52.438;16.744;2022-07-29T04:14:06;101068.63;;;13.85;100.00
48402;BME280;34201;52.438;16.744;2022-07-29T04:16:32;101041.09;;;13.78;100.00
48402;BME280;34201;52.438;16.744;2022-07-29T04:18:57;101058.13;;;13.90;100.00
48402;BME280;34201;52.438;16.744;2022-07-29T04:21:23;101051.78;;;13.98;100.00
48402;BME280;34201;52.438;16.744;2022-07-29T04:23:48;101044.81;;;13.99;100.00
48402;BME280;34201;52.438;16.744;2022-07-29T04:26:17;101044.75;;;14.02;100.00
48402;BME280;34201;52.438;16.744;2022-07-29T04:28:43;101044.97;;;13.94;100.00
48402;BME280;34201;52.438;16.744;2022-07-29T04:31:09;101066.34;;;14.04;100.00
48402;BME280;34201;52.438;16.744;2022-07-29T04:33:35;101055.22;;;14.00;100.00
48402;BME280;34201;52.438;16.744;2022-07-29T04:36:00;101050.59;;;14.09;100.00
48402;BME280;34201;52.438;16.744;2022-07-29T04:38:26;101023.00;;;14.04;100.00
48402;BME280;34201;52.438;16.744;2022-07-29T04:40:51;101035.78;;;14.12;100.00
48402;BME280;34201;52.438;16.744;2022-07-29T04:43:16;101017.56;;;14.12;100.00
48402;BME280;34201;52.438;16.744;2022-07-29T04:45:42;101025.06;;;14.23;100.00
48402;BME280;34201;52.438;16.744;2022-07-29T04:48:07;101018.94;;;14.24;100.00
48402;BME280;34201;52.438;16.744;2022-07-29T04:50:33;101017.03;;;14.29;100.00
48402;BME280;34201;52.438;16.744;2022-07-29T04:52:58;101003.94;;;14.32;100.00
48402;BME280;34201;52.438;16.744;2022-07-29T04:55:24;101014.28;;;14.35;100.00
48402;BME280;34201;52.438;16.744;2022-07-29T04:57:49;100983.88;;;14.36;100.00
48402;BME280;34201;52.438;16.744;2022-07-29T05:00:15;100988.28;;;14.34;100.00
48402;BME280;34201;52.438;16.744;2022-07-29T05:02:40;100992.47;;;14.40;100.00
48402;BME280;34201;52.438;16.744;2022-07-29T05:05:06;100992.75;;;14.57;100.00
48402;BME280;34201;52.438;16.744;2022-07-29T05:07:32;100990.31;;;14.52;100.00
48402;BME280;34201;52.438;16.744;2022-07-29T05:09:57;100977.19;;;14.55;100.00
48402;BME280;34201;52.438;16.744;2022-07-29T05:12:23;100982.13;;;14.65;100.00
48402;BME280;34201;52.438;16.744;2022-07-29T05:14:49;100977.75;;;14.65;100.00
48402;BME280;34201;52.438;16.744;2022-07-29T05:17:14;100959.31;;;14.71;100.00
48402;BME280;34201;52.438;16.744;2022-07-29T05:19:39;100969.25;;;14.85;100.00
48402;BME280;34201;52.438;16.744;2022-07-29T05:22:05;100949.44;;;14.81;99.53
48402;BME280;34201;52.438;16.744;2022-07-29T05:24:30;100954.56;;;14.84;99.34
48402;BME280;34201;52.438;16.744;2022-07-29T05:26:56;100938.78;;;14.89;98.09
48402;BME280;34201;52.438;16.744;2022-07-29T05:29:21;100939.56;;;14.91;97.59
48402;BME280;34201;52.438;16.744;2022-07-29T05:31:46;100961.56;;;15.08;97.74
48402;BME280;34201;52.438;16.744;2022-07-29T05:34:12;100948.41;;;15.11;96.75
48402;BME280;34201;52.438;16.744;2022-07-29T05:36:37;100950.00;;;15.15;96.80
48402;BME280;34201;52.438;16.744;2022-07-29T05:39:03;100976.69;;;15.21;97.49
48402;BME280;34201;52.438;16.744;2022-07-29T05:41:31;100958.41;;;15.23;96.37
48402;BME280;34201;52.438;16.744;2022-07-29T05:43:57;100947.66;;;15.32;95.99
48402;BME280;34201;52.438;16.744;2022-07-29T05:46:23;100954.03;;;15.47;95.39
48402;BME280;34201;52.438;16.744;2022-07-29T05:48:49;100926.13;;;15.51;93.94
48402;BME280;34201;52.438;16.744;2022-07-29T05:51:14;100919.22;;;15.72;92.62
48402;BME280;34201;52.438;16.744;2022-07-29T05:53:39;100930.06;;;15.85;93.55
48402;BME280;34201;52.438;16.744;2022-07-29T05:56:05;100915.03;;;15.91;91.66
48402;BME280;34201;52.438;16.744;2022-07-29T05:58:31;100895.59;;;15.99;90.11
48402;BME280;34201;52.438;16.744;2022-07-29T06:00:56;100890.09;;;16.06;89.29
48402;BME280;34201;52.438;16.744;2022-07-29T06:03:24;100906.75;;;16.24;89.39
48402;BME280;34201;52.438;16.744;2022-07-29T06:05:50;100880.97;;;16.37;88.16
48402;BME280;34201;52.438;16.744;2022-07-29T06:08:15;100862.78;;;16.56;87.08
48402;BME280;34201;52.438;16.744;2022-07-29T06:10:41;100850.28;;;16.63;86.21
48402;BME280;34201;52.438;16.744;2022-07-29T06:13:06;100839.31;;;16.75;85.54
48402;BME280;34201;52.438;16.744;2022-07-29T06:15:32;100837.03;;;16.88;85.00
48402;BME280;34201;52.438;16.744;2022-07-29T06:17:57;100838.09;;;17.03;84.88
48402;BME280;34201;52.438;16.744;2022-07-29T06:20:22;100832.47;;;17.13;83.53
48402;BME280;34201;52.438;16.744;2022-07-29T06:22:48;100807.88;;;17.17;82.56
48402;BME280;34201;52.438;16.744;2022-07-29T06:25:13;100781.53;;;17.21;80.66
48402;BME280;34201;52.438;16.744;2022-07-29T06:27:38;100793.72;;;17.40;81.33
48402;BME280;34201;52.438;16.744;2022-07-29T06:30:04;100796.97;;;17.45;80.59
48402;BME280;34201;52.438;16.744;2022-07-29T06:32:32;100781.53;;;17.58;79.90
48402;BME280;34201;52.438;16.744;2022-07-29T06:34:58;100791.53;;;17.67;79.66
48402;BME280;34201;52.438;16.744;2022-07-29T06:37:23;100779.44;;;17.82;79.02
48402;BME280;34201;52.438;16.744;2022-07-29T06:39:48;100781.50;;;17.94;79.18
48402;BME280;34201;52.438;16.744;2022-07-29T06:42:34;100798.72;;;18.16;79.23
48402;BME280;34201;52.438;16.744;2022-07-29T06:44:59;100759.19;;;18.38;77.06
48402;BME280;34201;52.438;16.744;2022-07-29T06:47:24;100776.38;;;18.60;77.54
48402;BME280;34201;52.438;16.744;2022-07-29T06:49:50;100767.78;;;18.74;76.47
48402;BME280;34201;52.438;16.744;2022-07-29T06:52:15;100745.84;;;18.92;74.72
48402;BME280;34201;52.438;16.744;2022-07-29T06:54:40;100748.88;;;19.17;74.76
48402;BME280;34201;52.438;16.744;2022-07-29T06:57:12;100714.59;;;19.36;73.24
48402;BME280;34201;52.438;16.744;2022-07-29T06:59:38;100697.78;;;19.85;71.51
48402;BME280;34201;52.438;16.744;2022-07-29T07:02:03;100687.00;;;20.32;70.46
48402;BME280;34201;52.438;16.744;2022-07-29T07:04:28;100657.25;;;20.46;69.05
48402;BME280;34201;52.438;16.744;2022-07-29T07:06:54;100655.84;;;20.55;69.60
48402;BME280;34201;52.438;16.744;2022-07-29T07:09:20;100631.72;;;20.63;68.18
48402;BME280;34201;52.438;16.744;2022-07-29T07:11:46;100629.91;;;20.63;68.33
48402;BME280;34201;52.438;16.744;2022-07-29T07:14:11;100600.84;;;20.66;66.92
48402;BME280;34201;52.438;16.744;2022-07-29T07:16:36;100584.06;;;20.55;66.95
48402;BME280;34201;52.438;16.744;2022-07-29T07:19:02;100586.59;;;20.56;67.53
48402;BME280;34201;52.438;16.744;2022-07-29T07:21:27;100602.16;;;20.74;67.06
48402;BME280;34201;52.438;16.744;2022-07-29T07:23:53;100605.84;;;20.84;67.49
48402;BME280;34201;52.438;16.744;2022-07-29T07:26:18;100583.03;;;20.84;66.88
48402;BME280;34201;52.438;16.744;2022-07-29T07:28:44;100603.53;;;20.79;68.10
48402;BME280;34201;52.438;16.744;2022-07-29T07:31:10;100578.88;;;20.95;65.97
48402;BME280;34201;52.438;16.744;2022-07-29T07:33:35;100539.34;;;21.09;63.81
48402;BME280;34201;52.438;16.744;2022-07-29T07:36:01;100541.78;;;21.12;64.75
48402;BME280;34201;52.438;16.744;2022-07-29T07:38:26;100546.31;;;21.10;64.76
48402;BME280;34201;52.438;16.744;2022-07-29T07:40:51;100571.22;;;21.17;65.47
48402;BME280;34201;52.438;16.744;2022-07-29T07:43:23;100553.97;;;21.26;64.03
48402;BME280;34201;52.438;16.744;2022-07-29T07:45:48;100548.31;;;21.32;64.07
48402;BME280;34201;52.438;16.744;2022-07-29T07:48:14;100549.03;;;21.34;63.98
48402;BME280;34201;52.438;16.744;2022-07-29T07:50:40;100541.69;;;21.27;63.68
48402;BME280;34201;52.438;16.744;2022-07-29T07:53:05;100507.91;;;21.20;62.78
48402;BME280;34201;52.438;16.744;2022-07-29T07:55:41;100542.84;;;21.48;63.12
48402;BME280;34201;52.438;16.744;2022-07-29T07:58:06;100595.34;;;21.37;65.62
48402;BME280;34201;52.438;16.744;2022-07-29T08:00:32;100571.53;;;21.51;64.03
48402;BME280;34201;52.438;16.744;2022-07-29T08:02:57;100519.59;;;21.42;62.80
48402;BME280;34201;52.438;16.744;2022-07-29T08:05:23;100531.69;;;21.45;62.48
48402;BME280;34201;52.438;16.744;2022-07-29T08:07:49;100562.00;;;21.50;63.88
48402;BME280;34201;52.438;16.744;2022-07-29T08:10:16;100593.03;;;21.45;65.30
48402;BME280;34201;52.438;16.744;2022-07-29T08:13:05;100532.53;;;21.58;62.57
48402;BME280;34201;52.438;16.744;2022-07-29T08:15:30;100498.31;;;21.71;60.77
48402;BME280;34201;52.438;16.744;2022-07-29T08:17:56;100510.13;;;21.52;61.45
48402;BME280;34201;52.438;16.744;2022-07-29T08:20:21;100522.75;;;21.73;61.65
48402;BME280;34201;52.438;16.744;2022-07-29T08:22:46;100526.00;;;21.64;61.42
48402;BME280;34201;52.438;16.744;2022-07-29T08:25:12;100517.69;;;21.70;61.01
48402;BME280;34201;52.438;16.744;2022-07-29T08:27:37;100547.09;;;22.01;61.81
48402;BME280;34201;52.438;16.744;2022-07-29T08:30:03;100513.53;;;21.92;61.03
48402;BME280;34201;52.438;16.744;2022-07-29T08:32:29;100524.56;;;21.97;61.23
48402;BME280;34201;52.438;16.744;2022-07-29T08:34:56;100510.13;;;22.02;60.92
48402;BME280;34201;52.438;16.744;2022-07-29T08:37:22;100522.66;;;21.99;61.33
48402;BME280;34201;52.438;16.744;2022-07-29T08:39:47;100504.81;;;21.91;61.13
48402;BME280;34201;52.438;16.744;2022-07-29T08:42:13;100506.63;;;22.02;60.77
48402;BME280;34201;52.438;16.744;2022-07-29T08:44:38;100491.59;;;22.04;59.87
48402;BME280;34201;52.438;16.744;2022-07-29T08:47:04;100550.03;;;22.09;61.70
48402;BME280;34201;52.438;16.744;2022-07-29T08:49:30;100504.88;;;22.02;60.30
48402;BME280;34201;52.438;16.744;2022-07-29T08:51:57;100522.19;;;22.18;60.66
48402;BME280;34201;52.438;16.744;2022-07-29T08:54:23;100511.84;;;21.91;60.71
48402;BME280;34201;52.438;16.744;2022-07-29T08:56:50;100466.69;;;22.32;58.47
48402;BME280;34201;52.438;16.744;2022-07-29T08:59:19;100529.88;;;22.45;60.20
48402;BME280;34201;52.438;16.744;2022-07-29T09:01:46;100516.09;;;22.42;60.21
48402;BME280;34201;52.438;16.744;2022-07-29T09:04:12;100481.53;;;22.58;58.99
48402;BME280;34201;52.438;16.744;2022-07-29T09:06:43;100464.41;;;22.52;58.15
48402;BME280;34201;52.438;16.744;2022-07-29T09:09:09;100474.50;;;22.58;58.40
48402;BME280;34201;52.438;16.744;2022-07-29T09:11:34;100467.44;;;22.70;57.70
48402;BME280;34201;52.438;16.744;2022-07-29T09:14:01;100488.47;;;23.05;58.05
48402;BME280;34201;52.438;16.744;2022-07-29T09:16:43;100464.66;;;23.07;57.09
48402;BME280;34201;52.438;16.744;2022-07-29T09:21:50;100449.81;;;23.17;56.76
48402;BME280;34201;52.438;16.744;2022-07-29T09:27:00;100484.09;;;23.40;57.17
48402;BME280;34201;52.438;16.744;2022-07-29T09:29:26;100471.63;;;23.53;56.41
48402;BME280;34201;52.438;16.744;2022-07-29T09:31:53;100479.66;;;23.40;57.77
48402;BME280;34201;52.438;16.744;2022-07-29T09:34:27;100475.44;;;23.61;56.67
48402;BME280;34201;52.438;16.744;2022-07-29T09:36:56;100467.56;;;23.49;56.83
48402;BME280;34201;52.438;16.744;2022-07-29T09:39:38;100455.19;;;23.38;56.39
48402;BME280;34201;52.438;16.744;2022-07-29T09:42:11;100473.31;;;23.32;57.40
48402;BME280;34201;52.438;16.744;2022-07-29T09:44:48;100464.59;;;22.96;58.02
48402;BME280;34201;52.438;16.744;2022-07-29T09:47:15;100443.25;;;22.76;57.25
48402;BME280;34201;52.438;16.744;2022-07-29T09:52:15;100413.31;;;22.77;56.41
48402;BME280;34201;52.438;16.744;2022-07-29T09:54:41;100456.50;;;23.10;56.46
48402;BME280;34201;52.438;16.744;2022-07-29T09:57:08;100440.56;;;23.23;56.36
48402;BME280;34201;52.438;16.744;2022-07-29T09:59:38;100446.88;;;22.98;57.42
48402;BME280;34201;52.438;16.744;2022-07-29T10:02:13;100449.56;;;23.32;56.49
48402;BME280;34201;52.438;16.744;2022-07-29T10:04:42;100455.38;;;23.81;56.16
48402;BME280;34201;52.438;16.744;2022-07-29T10:07:08;100425.19;;;24.06;54.51
48402;BME280;34201;52.438;16.744;2022-07-29T10:09:35;100453.41;;;24.80;53.14
48402;BME280;34201;52.438;16.744;2022-07-29T10:14:32;100443.34;;;25.67;51.53
48402;BME280;34201;52.438;16.744;2022-07-29T10:17:02;100395.13;;;25.73;50.80
48402;BME280;34201;52.438;16.744;2022-07-29T10:19:29;100394.31;;;25.92;50.28
48402;BME280;34201;52.438;16.744;2022-07-29T10:21:57;100398.22;;;26.37;49.49
48402;BME280;34201;52.438;16.744;2022-07-29T10:24:25;100380.16;;;26.60;49.11
48402;BME280;34201;52.438;16.744;2022-07-29T10:26:52;100387.47;;;26.95;49.11
48402;BME280;34201;52.438;16.744;2022-07-29T10:29:21;100362.09;;;27.11;48.26
48402;BME280;34201;52.438;16.744;2022-07-29T10:35:01;100357.22;;;28.24;46.09
48402;BME280;34201;52.438;16.744;2022-07-29T10:40:45;100354.16;;;27.75;47.23
48402;BME280;34201;52.438;16.744;2022-07-29T10:43:41;100321.78;;;26.79;47.78
48402;BME280;34201;52.438;16.744;2022-07-29T10:46:09;100313.59;;;26.16;47.72
48402;BME280;34201;52.438;16.744;2022-07-29T10:48:35;100332.91;;;25.28;49.48
48402;BME280;34201;52.438;16.744;2022-07-29T10:51:03;100362.25;;;25.15;50.77
48402;BME280;34201;52.438;16.744;2022-07-29T10:53:48;100406.00;;;25.19;51.79
48402;BME280;34201;52.438;16.744;2022-07-29T10:56:32;100358.75;;;25.05;50.67
48402;BME280;34201;52.438;16.744;2022-07-29T11:01:46;100387.47;;;25.79;51.08
48402;BME280;34201;52.438;16.744;2022-07-29T11:04:11;100331.31;;;26.72;47.02
48402;BME280;34201;52.438;16.744;2022-07-29T11:09:30;100317.38;;;27.62;46.77
48402;BME280;34201;52.438;16.744;2022-07-29T11:11:59;100284.56;;;27.89;45.31
48402;BME280;34201;52.438;16.744;2022-07-29T11:17:19;100286.38;;;27.89;45.27
48402;BME280;34201;52.438;16.744;2022-07-29T11:19:44;100255.78;;;26.67;46.43
48402;BME280;34201;52.438;16.744;2022-07-29T11:22:11;100296.03;;;26.05;47.33
48402;BME280;34201;52.438;16.744;2022-07-29T11:24:37;100349.09;;;26.90;47.45
48402;BME280;34201;52.438;16.744;2022-07-29T11:29:31;100316.28;;;27.73;45.80
48402;BME280;34201;52.438;16.744;2022-07-29T11:32:11;100290.03;;;28.66;43.86
48402;BME280;34201;52.438;16.744;2022-07-29T11:34:37;100301.41;;;28.85;44.13
48402;BME280;34201;52.438;16.744;2022-07-29T11:45:08;100264.97;;;28.08;43.80
48402;BME280;34201;52.438;16.744;2022-07-29T11:47:36;100211.16;;;27.26;43.66
48402;BME280;34201;52.438;16.744;2022-07-29T11:50:07;100252.19;;;27.31;44.42
48402;BME280;34201;52.438;16.744;2022-07-29T11:52:41;100243.63;;;27.02;44.93
48402;BME280;34201;52.438;16.744;2022-07-29T11:55:18;100264.25;;;28.06;43.33
48402;BME280;34201;52.438;16.744;2022-07-29T11:57:52;100226.09;;;27.89;43.38
48402;BME280;34201;52.438;16.744;2022-07-29T12:00:38;100242.50;;;27.40;43.87
48402;BME280;34201;52.438;16.744;2022-07-29T12:03:06;100297.75;;;27.37;45.50
48402;BME280;34201;52.438;16.744;2022-07-29T12:08:14;100207.91;;;27.50;43.40
48402;BME280;34201;52.438;16.744;2022-07-29T12:10:41;100213.97;;;26.88;44.42
48402;BME280;34201;52.438;16.744;2022-07-29T12:13:08;100261.09;;;26.94;45.01
48402;BME280;34201;52.438;16.744;2022-07-29T12:15:34;100277.41;;;27.45;44.96
48402;BME280;34201;52.438;16.744;2022-07-29T12:18:18;100260.63;;;27.89;44.45
48402;BME280;34201;52.438;16.744;2022-07-29T12:20:45;100178.19;;;27.73;42.06
48402;BME280;34201;52.438;16.744;2022-07-29T12:23:11;100223.56;;;28.32;42.75
48402;BME280;34201;52.438;16.744;2022-07-29T12:25:38;100233.97;;;28.60;42.34
48402;BME280;34201;52.438;16.744;2022-07-29T12:28:06;100173.41;;;29.05;40.69
48402;BME280;34201;52.438;16.744;2022-07-29T12:30:37;100164.69;;;28.78;41.25
48402;BME280;34201;52.438;16.744;2022-07-29T12:33:11;100166.91;;;28.99;40.82
48402;BME280;34201;52.438;16.744;2022-07-29T12:35:36;100162.09;;;29.44;39.92
48402;BME280;34201;52.438;16.744;2022-07-29T12:38:02;100172.81;;;28.60;41.56
48402;BME280;34201;52.438;16.744;2022-07-29T12:40:27;100166.03;;;28.82;40.68
48402;BME280;34201;52.438;16.744;2022-07-29T12:43:12;100153.09;;;28.95;40.32
48402;BME280;34201;52.438;16.744;2022-07-29T12:45:39;100110.00;;;28.83;38.65
48402;BME280;34201;52.438;16.744;2022-07-29T12:48:06;100138.94;;;29.03;39.29
48402;BME280;34201;52.438;16.744;2022-07-29T12:50:34;100113.59;;;28.49;39.14
48402;BME280;34201;52.438;16.744;2022-07-29T12:53:10;100148.00;;;28.51;39.70
48402;BME280;34201;52.438;16.744;2022-07-29T12:55:44;100131.44;;;28.82;39.51
48402;BME280;34201;52.438;16.744;2022-07-29T12:58:14;100138.19;;;27.74;41.04
48402;BME280;34201;52.438;16.744;2022-07-29T13:00:39;100181.19;;;27.52;42.94
48402;BME280;34201;52.438;16.744;2022-07-29T13:03:05;100178.44;;;26.99;43.52
48402;BME280;34201;52.438;16.744;2022-07-29T13:05:42;100179.09;;;27.19;42.83
48402;BME280;34201;52.438;16.744;2022-07-29T13:08:17;100164.06;;;27.98;41.30
48402;BME280;34201;52.438;16.744;2022-07-29T13:10:45;100137.94;;;27.86;41.35
48402;BME280;34201;52.438;16.744;2022-07-29T13:13:14;100154.31;;;28.50;40.80
48402;BME280;34201;52.438;16.744;2022-07-29T13:15:44;100124.53;;;27.95;41.04
48402;BME280;34201;52.438;16.744;2022-07-29T13:18:32;100139.53;;;28.56;40.61
48402;BME280;34201;52.438;16.744;2022-07-29T13:21:13;100129.09;;;28.62;40.60
48402;BME280;34201;52.438;16.744;2022-07-29T13:23:39;100157.06;;;28.83;40.83
48402;BME280;34201;52.438;16.744;2022-07-29T13:26:08;100162.38;;;28.83;41.40
48402;BME280;34201;52.438;16.744;2022-07-29T13:28:34;100190.69;;;29.00;42.61